Time;durP1;ratioP1;P1;durP2;ratioP2;P2;SDS_P1;SDS_P2;PMS_P1;PMS_P2;Temp;Humidity;BMP_temperature;BMP_pressure;BME280_temperature;BME280_humidity;BME280_pressure;Samples;Min_cycle;Max_cycle;Signal;HPM_P1;HPM_P2
2022/04/06 00:02:37;;;;;;;7.32;4.20;;;;;;;;;;5077577;28;20069;-67
2022/04/06 00:05:23;;;;;;;4.78;3.70;;;;;;;;;;5061528;28;20028;-68
2022/04/06 00:08:08;;;;;;;7.28;4.50;;;;;;;;;;5060939;28;20012;-67
2022/04/06 00:10:53;;;;;;;6.43;4.22;;;;;;;;;;5057786;28;20021;-68
2022/04/06 00:13:39;;;;;;;6.82;4.57;;;;;;;;;;5063765;28;20135;-67
2022/04/06 00:16:24;;;;;;;9.10;4.38;;;;;;;;;;5055079;28;20081;-70
2022/04/06 00:19:09;;;;;;;7.20;4.90;;;;;;;;;;5054974;28;20477;-65
2022/04/06 00:21:54;;;;;;;7.25;3.92;;;;;;;;;;5069011;28;20020;-66
2022/04/06 00:24:40;;;;;;;5.20;4.15;;;;;;;;;;5063236;28;20044;-68
2022/04/06 00:27:25;;;;;;;5.93;4.07;;;;;;;;;;5047482;28;20052;-65
2022/04/06 00:30:11;;;;;;;7.22;4.40;;;;;;;;;;5074529;28;20032;-66
2022/04/06 00:32:56;;;;;;;6.18;4.03;;;;;;;;;;5062250;28;20016;-66
2022/04/06 00:35:41;;;;;;;5.63;4.20;;;;;;;;;;5060745;28;20028;-67
2022/04/06 00:38:26;;;;;;;7.80;4.75;;;;;;;;;;5070489;28;20024;-64
2022/04/06 00:41:12;;;;;;;6.65;3.95;;;;;;;;;;5057790;28;20024;-65
2022/04/06 00:44:14;;;;;;;7.43;4.63;;;;;;;;;;5067873;28;20039;-66
2022/04/06 00:46:59;;;;;;;5.90;3.95;;;;;;;;;;5066680;28;20024;-66
2022/04/06 00:49:44;;;;;;;5.68;3.50;;;;;;;;;;5070508;28;20107;-67
2022/04/06 00:52:30;;;;;;;6.28;3.78;;;;;;;;;;5076107;28;20530;-67
2022/04/06 00:55:16;;;;;;;6.57;4.13;;;;;;;;;;5085368;28;20023;-74
2022/04/06 00:58:01;;;;;;;6.88;4.28;;;;;;;;;;5073924;28;20500;-71
2022/04/06 01:00:47;;;;;;;6.53;4.22;;;;;;;;;;5060726;28;20047;-73
2022/04/06 01:03:32;;;;;;;6.05;4.22;;;;;;;;;;5075234;28;20032;-74
2022/04/06 01:06:20;;;;;;;5.82;4.18;;;;;;;;;;5061980;28;20033;-72
2022/04/06 01:09:05;;;;;;;6.30;4.30;;;;;;;;;;5069629;28;20031;-73
2022/04/06 01:11:51;;;;;;;7.65;4.35;;;;;;;;;;5068919;28;20464;-70
2022/04/06 01:14:37;;;;;;;5.13;3.88;;;;;;;;;;5071144;28;20094;-66
2022/04/06 01:17:23;;;;;;;6.20;4.25;;;;;;;;;;5058235;28;20104;-62
2022/04/06 01:20:09;;;;;;;6.72;4.38;;;;;;;;;;5072193;28;20016;-64
2022/04/06 01:22:54;;;;;;;7.35;4.60;;;;;;;;;;5070699;28;20051;-64
2022/04/06 01:25:40;;;;;;;6.00;4.20;;;;;;;;;;5061871;28;20139;-62
2022/04/06 01:28:26;;;;;;;6.15;3.88;;;;;;;;;;5066272;28;20035;-69
2022/04/06 01:31:11;;;;;;;7.75;3.85;;;;;;;;;;5067191;28;20310;-75
2022/04/06 01:33:56;;;;;;;4.95;3.92;;;;;;;;;;5059170;28;20031;-75
2022/04/06 01:36:41;;;;;;;5.75;3.97;;;;;;;;;;5068156;28;20073;-75
2022/04/06 01:39:27;;;;;;;7.32;4.45;;;;;;;;;;5067298;28;20024;-75
2022/04/06 01:42:14;;;;;;;5.65;4.50;;;;;;;;;;5070408;28;20475;-74
2022/04/06 01:45:00;;;;;;;6.65;4.47;;;;;;;;;;5071642;28;20490;-75
2022/04/06 01:47:45;;;;;;;6.30;4.07;;;;;;;;;;5066119;28;20016;-75
2022/04/06 01:53:34;;;;;;;6.95;4.40;;;;;;;;;;5074772;28;20155;-70
2022/04/06 01:56:20;;;;;;;5.47;3.95;;;;;;;;;;5054296;28;20034;-71
2022/04/06 01:59:06;;;;;;;5.82;4.18;;;;;;;;;;5070229;28;20027;-70
2022/04/06 02:01:52;;;;;;;8.15;4.95;;;;;;;;;;5069675;28;20031;-69
2022/04/06 02:04:38;;;;;;;6.82;5.03;;;;;;;;;;5064349;28;20047;-65
2022/04/06 02:07:25;;;;;;;5.72;3.85;;;;;;;;;;5068261;28;20025;-67
2022/04/06 02:10:10;;;;;;;4.95;3.67;;;;;;;;;;5057606;28;20031;-76
2022/04/06 02:12:57;;;;;;;7.13;4.65;;;;;;;;;;5061633;28;20040;-78
2022/04/06 02:15:42;;;;;;;8.60;5.25;;;;;;;;;;5074235;28;20447;-75
2022/04/06 02:18:27;;;;;;;6.63;4.68;;;;;;;;;;5060647;28;20116;-74
2022/04/06 02:21:12;;;;;;;7.35;5.00;;;;;;;;;;5059755;28;20495;-75
2022/04/06 02:23:58;;;;;;;8.40;4.53;;;;;;;;;;5073561;28;20050;-70
2022/04/06 02:26:43;;;;;;;7.45;4.88;;;;;;;;;;5062758;28;20490;-65
2022/04/06 02:29:29;;;;;;;5.72;3.72;;;;;;;;;;5073623;28;20023;-65
2022/04/06 02:32:14;;;;;;;7.05;4.75;;;;;;;;;;5059640;28;20032;-67
2022/04/06 02:35:00;;;;;;;5.20;3.85;;;;;;;;;;5063621;28;20089;-66
2022/04/06 02:37:45;;;;;;;6.57;4.13;;;;;;;;;;5054147;28;20020;-66
2022/04/06 02:40:33;;;;;;;6.88;4.93;;;;;;;;;;5066190;28;20435;-66
2022/04/06 02:43:18;;;;;;;8.80;4.78;;;;;;;;;;5064838;28;20038;-62
2022/04/06 02:46:03;;;;;;;6.95;4.60;;;;;;;;;;5069592;28;20028;-74
2022/04/06 02:48:49;;;;;;;7.60;4.75;;;;;;;;;;5060463;28;20509;-75
2022/04/06 02:51:34;;;;;;;8.18;4.55;;;;;;;;;;5069680;28;20020;-75
2022/04/06 02:54:20;;;;;;;8.98;5.55;;;;;;;;;;5059990;28;20371;-77
2022/04/06 02:57:06;;;;;;;5.68;4.10;;;;;;;;;;5064698;28;20491;-75
2022/04/06 02:59:51;;;;;;;6.20;4.30;;;;;;;;;;5062100;28;20020;-69
2022/04/06 03:02:36;;;;;;;7.47;5.05;;;;;;;;;;5068574;28;20028;-63
2022/04/06 03:05:21;;;;;;;6.47;4.05;;;;;;;;;;5069439;28;20282;-68
2022/04/06 03:08:07;;;;;;;7.18;4.22;;;;;;;;;;5068917;28;20112;-66
2022/04/06 03:10:52;;;;;;;7.55;4.60;;;;;;;;;;5067711;28;20016;-65
2022/04/06 03:13:37;;;;;;;5.95;4.20;;;;;;;;;;5070550;28;20036;-65
2022/04/06 03:16:23;;;;;;;6.40;4.53;;;;;;;;;;5052202;28;20028;-64
2022/04/06 03:19:08;;;;;;;6.88;4.63;;;;;;;;;;5058494;28;20027;-78
2022/04/06 03:21:53;;;;;;;6.03;4.20;;;;;;;;;;5059174;28;20074;-68
2022/04/06 03:24:38;;;;;;;7.72;4.57;;;;;;;;;;5052800;28;20032;-67
2022/04/06 03:27:24;;;;;;;7.05;5.07;;;;;;;;;;5074356;28;20032;-68
2022/04/06 03:30:12;;;;;;;7.18;4.47;;;;;;;;;;5056923;28;20031;-67
2022/04/06 03:32:57;;;;;;;6.72;4.50;;;;;;;;;;5071000;28;20024;-70
2022/04/06 03:35:43;;;;;;;7.90;4.95;;;;;;;;;;5062532;28;20031;-67
2022/04/06 03:38:28;;;;;;;7.38;4.45;;;;;;;;;;5061294;28;20129;-65
2022/04/06 03:41:13;;;;;;;6.50;4.63;;;;;;;;;;5070409;28;20024;-72
2022/04/06 03:43:58;;;;;;;6.72;4.55;;;;;;;;;;5067659;28;20037;-73
2022/04/06 03:46:44;;;;;;;6.93;4.75;;;;;;;;;;5057751;28;20081;-74
2022/04/06 03:49:29;;;;;;;8.70;4.43;;;;;;;;;;5047155;28;20092;-74
2022/04/06 03:52:14;;;;;;;7.70;4.78;;;;;;;;;;5065648;28;20375;-73
2022/04/06 03:54:59;;;;;;;6.82;4.68;;;;;;;;;;5070736;28;20035;-65
2022/04/06 03:57:45;;;;;;;7.05;4.72;;;;;;;;;;5072257;28;20031;-64
2022/04/06 04:00:30;;;;;;;7.63;4.40;;;;;;;;;;5058331;28;20024;-63
2022/04/06 04:03:16;;;;;;;7.50;4.93;;;;;;;;;;5069184;28;20024;-63
2022/04/06 04:06:01;;;;;;;9.27;5.05;;;;;;;;;;5073303;28;20063;-62
2022/04/06 04:08:46;;;;;;;6.35;4.28;;;;;;;;;;5066051;28;20033;-62
2022/04/06 04:11:31;;;;;;;6.63;4.38;;;;;;;;;;5065748;28;20036;-65
2022/04/06 04:14:09;;;;;;;7.57;4.45;;;;;;;;;;5097034;27;1283583;-73
2022/04/06 04:16:55;;;;;;;7.57;4.35;;;;;;;;;;5124552;28;20032;-71
2022/04/06 04:19:40;;;;;;;8.52;4.13;;;;;;;;;;5125960;28;20049;-70
2022/04/06 04:22:25;;;;;;;6.68;4.43;;;;;;;;;;5124244;28;20431;-71
2022/04/06 04:25:11;;;;;;;7.28;4.47;;;;;;;;;;5125918;28;20027;-71
2022/04/06 04:27:56;;;;;;;7.35;4.55;;;;;;;;;;5123366;28;20042;-74
2022/04/06 04:30:44;;;;;;;6.72;4.32;;;;;;;;;;5126172;27;20019;-74
2022/04/06 04:33:30;;;;;;;7.65;4.50;;;;;;;;;;5124045;28;20119;-70
2022/04/06 04:36:16;;;;;;;6.35;4.47;;;;;;;;;;5123646;28;20485;-75
2022/04/06 04:39:02;;;;;;;8.32;3.50;;;;;;;;;;5121952;28;20453;-74
2022/04/06 04:41:49;;;;;;;7.45;4.53;;;;;;;;;;5076162;28;20024;-74
2022/04/06 04:44:34;;;;;;;5.70;4.30;;;;;;;;;;5081328;28;20030;-75
2022/04/06 04:47:19;;;;;;;7.45;4.38;;;;;;;;;;5097478;28;20027;-75
2022/04/06 04:50:05;;;;;;;7.45;4.28;;;;;;;;;;5099111;28;20055;-74
2022/04/06 04:52:50;;;;;;;5.90;4.10;;;;;;;;;;5097944;28;20024;-64
2022/04/06 04:55:36;;;;;;;6.25;4.78;;;;;;;;;;5092199;28;20032;-71
2022/04/06 04:58:21;;;;;;;8.02;4.80;;;;;;;;;;5096040;28;20062;-69
2022/04/06 05:01:08;;;;;;;5.90;4.03;;;;;;;;;;5101248;28;20024;-66
2022/04/06 05:03:53;;;;;;;7.25;4.45;;;;;;;;;;5098640;28;20103;-70
2022/04/06 05:06:38;;;;;;;7.03;4.53;;;;;;;;;;5096173;28;20118;-68
2022/04/06 05:09:23;;;;;;;5.55;3.60;;;;;;;;;;5089623;28;20111;-60
2022/04/06 05:12:09;;;;;;;6.38;4.28;;;;;;;;;;5101540;28;20040;-70
2022/04/06 05:14:54;;;;;;;5.57;3.80;;;;;;;;;;5100150;28;20467;-68
2022/04/06 05:17:40;;;;;;;8.02;4.38;;;;;;;;;;5075739;28;20089;-68
2022/04/06 05:20:25;;;;;;;9.43;4.35;;;;;;;;;;5097754;28;20050;-68
2022/04/06 05:23:10;;;;;;;7.35;3.97;;;;;;;;;;5093908;28;20036;-70
2022/04/06 05:25:55;;;;;;;11.20;4.43;;;;;;;;;;5084855;28;20531;-68
2022/04/06 05:28:40;;;;;;;6.32;3.92;;;;;;;;;;5072278;28;20040;-72
2022/04/06 05:31:26;;;;;;;7.53;4.15;;;;;;;;;;5081445;28;20055;-71
2022/04/06 05:34:11;;;;;;;6.95;4.47;;;;;;;;;;5091081;28;20051;-70
2022/04/06 05:36:56;;;;;;;9.25;4.35;;;;;;;;;;5077358;28;20028;-69
2022/04/06 05:39:41;;;;;;;7.60;4.10;;;;;;;;;;5085302;28;20013;-68
2022/04/06 05:42:27;;;;;;;7.10;4.22;;;;;;;;;;5089447;28;20066;-71
2022/04/06 05:45:13;;;;;;;7.00;3.90;;;;;;;;;;5076326;28;20030;-71
2022/04/06 05:47:58;;;;;;;8.43;4.57;;;;;;;;;;5077428;28;20028;-69
2022/04/06 05:50:43;;;;;;;8.30;3.90;;;;;;;;;;5086003;28;20031;-62
2022/04/06 05:53:28;;;;;;;5.22;4.07;;;;;;;;;;5080589;28;20028;-61
2022/04/06 05:56:14;;;;;;;7.72;4.35;;;;;;;;;;5057987;28;20029;-65
2022/04/06 05:58:59;;;;;;;7.05;4.00;;;;;;;;;;5081567;28;20441;-62
2022/04/06 06:01:44;;;;;;;7.20;4.13;;;;;;;;;;5066460;28;20021;-65
2022/04/06 06:04:29;;;;;;;7.00;4.20;;;;;;;;;;5080500;28;20032;-69
2022/04/06 06:07:14;;;;;;;6.50;4.55;;;;;;;;;;5085616;28;20115;-65
2022/04/06 06:10:02;;;;;;;8.82;5.03;;;;;;;;;;5080003;28;20024;-68
2022/04/06 06:12:47;;;;;;;6.60;4.25;;;;;;;;;;5066014;28;20043;-67
2022/04/06 06:15:32;;;;;;;8.10;4.50;;;;;;;;;;5078606;28;20507;-66
2022/04/06 06:18:17;;;;;;;6.40;4.28;;;;;;;;;;5077828;28;20188;-65
2022/04/06 06:21:04;;;;;;;7.82;4.72;;;;;;;;;;5076426;28;20029;-63
2022/04/06 06:23:50;;;;;;;8.88;5.43;;;;;;;;;;5067429;28;20176;-67
2022/04/06 06:26:36;;;;;;;7.05;4.95;;;;;;;;;;5073666;28;20476;-77
2022/04/06 06:29:21;;;;;;;6.93;5.22;;;;;;;;;;5076963;28;20016;-75
2022/04/06 06:32:07;;;;;;;6.95;4.75;;;;;;;;;;5071325;28;20566;-73
2022/04/06 06:34:52;;;;;;;7.28;4.70;;;;;;;;;;5081174;28;20024;-74
2022/04/06 06:37:51;;;;;;;7.90;5.20;;;;;;;;;;5079475;28;20027;-75
2022/04/06 06:40:36;;;;;;;6.32;5.15;;;;;;;;;;5067274;28;20028;-65
2022/04/06 06:43:21;;;;;;;8.20;5.47;;;;;;;;;;5078137;28;20040;-65
2022/04/06 06:46:06;;;;;;;9.70;5.90;;;;;;;;;;5078239;28;20356;-64
2022/04/06 06:48:52;;;;;;;9.98;5.45;;;;;;;;;;5075949;28;20107;-64
2022/04/06 06:51:39;;;;;;;9.88;5.95;;;;;;;;;;5065866;28;20356;-65
2022/04/06 06:54:24;;;;;;;8.13;5.03;;;;;;;;;;5073154;28;20154;-65
2022/04/06 06:57:11;;;;;;;9.20;5.32;;;;;;;;;;5099534;27;20024;-64
2022/04/06 06:59:57;;;;;;;5.22;4.30;;;;;;;;;;5081527;28;20564;-68
2022/04/06 07:02:42;;;;;;;9.45;4.88;;;;;;;;;;5065613;28;20035;-65
2022/04/06 07:05:28;;;;;;;6.53;4.10;;;;;;;;;;5071756;28;20019;-63
2022/04/06 07:08:13;;;;;;;6.15;4.75;;;;;;;;;;5061547;28;20039;-63
2022/04/06 07:10:58;;;;;;;7.22;4.43;;;;;;;;;;5080271;28;21415;-62
2022/04/06 07:13:44;;;;;;;5.80;4.22;;;;;;;;;;5081365;28;20056;-62
2022/04/06 07:16:29;;;;;;;8.65;4.43;;;;;;;;;;5073695;28;20016;-63
2022/04/06 07:19:15;;;;;;;6.43;4.03;;;;;;;;;;5083335;28;20051;-66
2022/04/06 07:22:00;;;;;;;7.00;4.18;;;;;;;;;;5073447;28;20237;-68
2022/04/06 07:24:45;;;;;;;4.75;3.30;;;;;;;;;;5085977;28;20500;-67
2022/04/06 07:27:35;;;;;;;5.35;3.67;;;;;;;;;;5083430;28;20058;-68
2022/04/06 07:30:20;;;;;;;;;;;;;;;;;;5068596;28;20028;-64
2022/04/06 07:33:05;;;;;;;6.20;3.40;;;;;;;;;;5082775;28;19924;-64
2022/04/06 07:35:51;;;;;;;5.82;3.15;;;;;;;;;;5083034;28;20016;-64
2022/04/06 07:38:36;;;;;;;7.25;3.35;;;;;;;;;;5079849;28;20042;-65
2022/04/06 07:41:24;;;;;;;4.68;2.85;;;;;;;;;;5078661;28;20582;-62
2022/04/06 07:44:10;;;;;;;4.28;3.40;;;;;;;;;;5077530;28;20068;-65
2022/04/06 07:46:55;;;;;;;4.63;2.50;;;;;;;;;;5074494;28;20020;-63
2022/04/06 07:49:40;;;;;;;4.38;2.40;;;;;;;;;;5077174;28;20028;-62
2022/04/06 07:52:25;;;;;;;4.72;2.65;;;;;;;;;;5075880;28;20045;-61
2022/04/06 07:55:11;;;;;;;4.20;2.78;;;;;;;;;;5073125;28;20028;-64
2022/04/06 07:57:56;;;;;;;3.10;2.20;;;;;;;;;;5083107;28;20063;-77
2022/04/06 08:00:42;;;;;;;2.90;2.20;;;;;;;;;;5057383;28;20012;-74
2022/04/06 08:03:27;;;;;;;2.58;1.85;;;;;;;;;;5089575;28;20267;-73
2022/04/06 08:06:12;;;;;;;4.80;2.22;;;;;;;;;;5070490;28;20655;-74
2022/04/06 08:08:59;;;;;;;2.83;2.10;;;;;;;;;;5074599;28;20060;-76
2022/04/06 08:11:44;;;;;;;3.55;2.00;;;;;;;;;;5079476;28;20028;-76
2022/04/06 08:14:29;;;;;;;3.88;2.10;;;;;;;;;;5075261;28;20441;-76
2022/04/06 08:17:15;;;;;;;4.03;2.00;;;;;;;;;;5076618;28;20049;-62
2022/04/06 08:20:00;;;;;;;2.95;1.92;;;;;;;;;;5085542;28;20789;-61
2022/04/06 08:22:46;;;;;;;3.97;1.77;;;;;;;;;;5081778;28;20164;-61
2022/04/06 08:25:33;;;;;;;2.17;1.80;;;;;;;;;;5084193;28;20024;-64
2022/04/06 08:28:19;;;;;;;2.58;1.60;;;;;;;;;;5079900;28;20036;-62
2022/04/06 08:31:05;;;;;;;2.85;1.77;;;;;;;;;;5081054;28;20668;-67
2022/04/06 08:33:50;;;;;;;2.22;1.52;;;;;;;;;;5060333;28;20044;-61
2022/04/06 08:36:35;;;;;;;1.83;1.48;;;;;;;;;;5078294;28;20367;-65
2022/04/06 08:39:21;;;;;;;2.60;1.42;;;;;;;;;;5080316;28;20138;-63
2022/04/06 08:42:06;;;;;;;2.72;1.50;;;;;;;;;;5083597;28;20040;-63
2022/04/06 08:44:52;;;;;;;3.70;1.58;;;;;;;;;;5079515;28;20145;-64
2022/04/06 08:47:37;;;;;;;1.33;1.20;;;;;;;;;;5078909;28;20224;-63
2022/04/06 08:50:26;;;;;;;1.83;1.13;;;;;;;;;;5085362;28;20023;-66
2022/04/06 08:53:12;;;;;;;0.80;0.80;;;;;;;;;;5083256;28;20054;-76
2022/04/06 08:55:57;;;;;;;1.50;1.25;;;;;;;;;;5084721;28;20471;-74
2022/04/06 08:58:43;;;;;;;1.33;1.10;;;;;;;;;;5086883;28;20109;-76
2022/04/06 09:01:33;;;;;;;1.90;1.00;;;;;;;;;;5083181;28;20142;-73
2022/04/06 09:04:20;;;;;;;1.60;1.10;;;;;;;;;;5101543;27;20513;-75
2022/04/06 09:07:06;;;;;;;1.70;0.93;;;;;;;;;;5085116;28;20297;-74
2022/04/06 09:09:52;;;;;;;1.58;1.10;;;;;;;;;;5084332;28;20429;-63
2022/04/06 09:12:37;;;;;;;2.53;1.20;;;;;;;;;;5084363;28;20617;-63
2022/04/06 09:15:23;;;;;;;1.58;1.00;;;;;;;;;;5082063;28;20036;-66
2022/04/06 09:18:08;;;;;;;1.45;1.30;;;;;;;;;;5073157;28;20036;-66
2022/04/06 09:21:00;;;;;;;1.10;1.00;;;;;;;;;;5080206;28;20032;-63
2022/04/06 09:23:49;;;;;;;3.08;0.90;;;;;;;;;;5074098;28;20028;-65
2022/04/06 09:26:34;;;;;;;1.17;1.05;;;;;;;;;;5077788;28;20016;-66
2022/04/06 09:29:20;;;;;;;1.52;1.20;;;;;;;;;;5075687;28;20032;-62
2022/04/06 09:32:10;;;;;;;0.95;0.70;;;;;;;;;;5078601;28;20020;-62
2022/04/06 09:34:55;;;;;;;1.65;0.93;;;;;;;;;;5083742;28;20206;-62
2022/04/06 09:37:40;;;;;;;1.17;0.98;;;;;;;;;;5078176;28;20020;-64
2022/04/06 09:40:28;;;;;;;1.27;0.90;;;;;;;;;;5078932;28;20085;-62
2022/04/06 09:43:24;;;;;;;0.60;0.60;;;;;;;;;;5085180;28;20048;-63
2022/04/06 09:49:24;;;;;;;0.65;0.65;;;;;;;;;;5095810;28;20149;-62
2022/04/06 09:52:10;;;;;;;0.70;0.70;;;;;;;;;;5078255;28;20020;-60
2022/04/06 09:54:55;;;;;;;1.25;0.77;;;;;;;;;;5067758;28;20127;-61
2022/04/06 09:57:51;;;;;;;0.93;0.80;;;;;;;;;;5074157;28;20031;-61
2022/04/06 10:00:37;;;;;;;0.80;0.80;;;;;;;;;;5078545;28;20031;-63
2022/04/06 10:03:22;;;;;;;1.48;0.88;;;;;;;;;;5082332;28;20028;-62
2022/04/06 10:06:08;;;;;;;1.75;1.02;;;;;;;;;;5073328;28;20074;-61
2022/04/06 10:08:54;;;;;;;1.30;0.73;;;;;;;;;;5077216;28;20036;-67
2022/04/06 10:11:40;;;;;;;1.90;1.00;;;;;;;;;;5079959;28;20046;-65
2022/04/06 10:14:26;;;;;;;0.65;0.60;;;;;;;;;;5086226;28;20028;-66
2022/04/06 10:17:13;;;;;;;0.70;0.70;;;;;;;;;;5087388;28;20049;-65
2022/04/06 10:20:06;;;;;;;0.75;0.70;;;;;;;;;;5084117;28;20020;-64
2022/04/06 10:22:57;;;;;;;3.50;0.80;;;;;;;;;;5097690;27;20424;-70
2022/04/06 10:25:55;;;;;;;0.80;0.80;;;;;;;;;;5077899;28;20024;-76
2022/04/06 10:28:44;;;;;;;2.67;1.05;;;;;;;;;;5073727;28;20036;-76
2022/04/06 10:31:30;;;;;;;1.65;0.82;;;;;;;;;;5080644;28;20028;-78
2022/04/06 10:34:24;;;;;;;1.17;1.00;;;;;;;;;;5058756;28;20029;-77
2022/04/06 10:37:13;;;;;;;0.85;0.70;;;;;;;;;;5077246;28;20016;-79
2022/04/06 10:39:59;;;;;;;0.80;0.80;;;;;;;;;;5054973;28;20032;-69
2022/04/06 10:42:52;;;;;;;0.68;0.60;;;;;;;;;;5071262;28;20201;-70
2022/04/06 10:45:38;;;;;;;1.25;0.73;;;;;;;;;;5064836;28;20266;-70
2022/04/06 10:48:23;;;;;;;0.80;0.77;;;;;;;;;;5077188;28;20024;-70
2022/04/06 10:51:33;;;;;;;0.77;0.77;;;;;;;;;;5076149;28;20044;-71
2022/04/06 10:54:18;;;;;;;1.42;0.70;;;;;;;;;;5071366;28;20417;-70
2022/04/06 10:57:04;;;;;;;0.70;0.70;;;;;;;;;;5077514;28;20044;-72
2022/04/06 11:00:08;;;;;;;0.77;0.70;;;;;;;;;;5055888;28;20483;-76
2022/04/06 11:02:53;;;;;;;6.50;1.30;;;;;;;;;;5064899;28;20024;-67
2022/04/06 11:05:45;;;;;;;0.68;0.60;;;;;;;;;;5080431;28;20028;-68
2022/04/06 11:12:04;;;;;;;16.13;11.02;;;;;;;;;;5084470;28;20019;-63
2022/04/06 11:14:50;;;;;;;14.85;11.93;;;;;;;;;;5077407;28;20441;-63
2022/04/06 11:20:28;;;;;;;12.05;5.70;;;;;;;;;;5079176;28;20034;-63
2022/04/06 11:23:16;;;;;;;1.38;1.27;;;;;;;;;;5083037;28;20032;-68
2022/04/06 11:26:01;;;;;;;4.00;1.70;;;;;;;;;;5081314;28;20028;-66
2022/04/06 11:28:54;;;;;;;2.35;1.25;;;;;;;;;;5074966;28;20026;-66
2022/04/06 11:32:00;;;;;;;0.80;0.80;;;;;;;;;;5079556;28;20112;-69
2022/04/06 11:34:45;;;;;;;4.50;2.83;;;;;;;;;;5080188;28;20031;-69
2022/04/06 11:37:30;;;;;;;2.53;1.40;;;;;;;;;;5076736;28;20493;-62
2022/04/06 11:40:16;;;;;;;2.72;1.80;;;;;;;;;;5079143;28;20103;-61
2022/04/06 11:43:05;;;;;;;1.48;1.15;;;;;;;;;;5073302;28;20037;-62
2022/04/06 11:45:57;;;;;;;3.20;1.90;;;;;;;;;;5082375;28;20047;-61
2022/04/06 11:48:43;;;;;;;1.88;1.30;;;;;;;;;;5082121;28;20582;-63
2022/04/06 11:51:28;;;;;;;3.67;2.05;;;;;;;;;;5082052;28;20039;-61
2022/04/06 11:54:13;;;;;;;1.35;1.02;;;;;;;;;;5075604;28;20184;-62
2022/04/06 11:56:58;;;;;;;1.30;1.02;;;;;;;;;;5079479;28;20028;-63
2022/04/06 11:59:53;;;;;;;2.47;2.10;;;;;;;;;;5072031;28;20473;-61
2022/04/06 12:02:49;;;;;;;1.38;1.27;;;;;;;;;;5076352;28;20459;-60
2022/04/06 12:05:46;;;;;;;2.70;1.27;;;;;;;;;;5077715;28;20230;-58
2022/04/06 12:08:34;;;;;;;1.50;1.02;;;;;;;;;;5084262;28;20117;-61
2022/04/06 12:11:19;;;;;;;3.53;1.23;;;;;;;;;;5088094;28;20414;-60
2022/04/06 12:14:05;;;;;;;0.68;0.68;;;;;;;;;;5074453;28;20052;-69
2022/04/06 12:16:51;;;;;;;1.00;0.90;;;;;;;;;;5079025;28;21541;-70
2022/04/06 12:19:36;;;;;;;1.13;0.90;;;;;;;;;;5068650;28;20028;-71
2022/04/06 12:22:25;;;;;;;0.88;0.70;;;;;;;;;;5076306;28;20157;-63
2022/04/06 12:25:25;;;;;;;1.65;0.80;;;;;;;;;;5069393;28;20024;-62
2022/04/06 12:28:17;;;;;;;0.80;0.60;;;;;;;;;;5078228;28;20088;-64
2022/04/06 12:31:03;;;;;;;1.88;0.80;;;;;;;;;;5074217;28;20500;-67
2022/04/06 12:33:53;;;;;;;2.15;0.80;;;;;;;;;;5077684;28;20036;-66
2022/04/06 12:36:38;;;;;;;;;;;;;;;;;;5073893;28;20276;-63
2022/04/06 12:39:24;;;;;;;3.47;0.70;;;;;;;;;;5070327;28;20661;-65
2022/04/06 12:42:09;;;;;;;1.13;0.80;;;;;;;;;;5086037;28;20024;-62
2022/04/06 12:44:58;;;;;;;0.60;0.60;;;;;;;;;;5067985;28;20052;-64
2022/04/06 12:47:47;;;;;;;0.63;0.63;;;;;;;;;;5079229;28;20051;-62
2022/04/06 12:50:36;;;;;;;2.13;0.60;;;;;;;;;;5084071;28;20036;-66
2022/04/06 12:53:21;;;;;;;0.80;0.80;;;;;;;;;;5079673;28;20032;-65
2022/04/06 12:56:11;;;;;;;0.70;0.70;;;;;;;;;;5077672;28;20478;-64
2022/04/06 12:59:09;;;;;;;3.45;1.45;;;;;;;;;;5074785;28;20446;-65
2022/04/06 13:01:56;;;;;;;0.63;0.63;;;;;;;;;;5083046;28;20033;-63
2022/04/06 13:04:42;;;;;;;0.70;0.70;;;;;;;;;;5078991;28;20039;-63
2022/04/06 13:07:28;;;;;;;1.58;0.80;;;;;;;;;;5085804;28;20035;-65
2022/04/06 13:10:27;;;;;;;0.60;0.60;;;;;;;;;;5083566;28;20036;-63
2022/04/06 13:13:13;;;;;;;0.88;0.85;;;;;;;;;;5082159;28;20507;-73
2022/04/06 13:15:58;;;;;;;1.77;0.93;;;;;;;;;;5080789;28;20048;-77
2022/04/06 13:18:44;;;;;;;3.60;0.77;;;;;;;;;;5083959;28;20090;-77
2022/04/06 13:21:33;;;;;;;1.17;0.80;;;;;;;;;;5080447;28;20033;-74
2022/04/06 13:24:20;;;;;;;3.88;0.75;;;;;;;;;;5063575;28;20031;-75
2022/04/06 13:27:05;;;;;;;1.98;0.88;;;;;;;;;;5084308;28;20028;-63
2022/04/06 13:29:50;;;;;;;1.98;0.70;;;;;;;;;;5079758;28;20028;-64
2022/04/06 13:32:36;;;;;;;1.00;0.73;;;;;;;;;;5079650;28;20036;-62
2022/04/06 13:35:21;;;;;;;1.00;0.80;;;;;;;;;;5076269;28;20111;-67
2022/04/06 13:38:06;;;;;;;0.73;0.70;;;;;;;;;;5083788;28;20061;-62
2022/04/06 13:40:52;;;;;;;0.93;0.90;;;;;;;;;;5078294;28;20090;-65
2022/04/06 13:43:37;;;;;;;0.77;0.73;;;;;;;;;;5079293;28;20119;-64
2022/04/06 13:46:22;;;;;;;0.70;0.70;;;;;;;;;;5078110;28;20021;-69
2022/04/06 13:49:08;;;;;;;2.45;0.90;;;;;;;;;;5074953;28;20024;-75
2022/04/06 13:51:56;;;;;;;0.77;0.73;;;;;;;;;;5079965;28;20023;-78
2022/04/06 13:54:41;;;;;;;0.80;0.80;;;;;;;;;;5080011;28;20518;-76
2022/04/06 13:57:28;;;;;;;1.42;1.00;;;;;;;;;;5075966;28;20119;-74
2022/04/06 14:00:14;;;;;;;0.88;0.88;;;;;;;;;;5078009;28;20031;-72
2022/04/06 14:02:59;;;;;;;0.95;0.80;;;;;;;;;;5080958;28;20490;-63
2022/04/06 14:05:45;;;;;;;0.73;0.73;;;;;;;;;;5062659;28;20057;-69
2022/04/06 14:08:31;;;;;;;0.90;0.70;;;;;;;;;;5081954;28;20020;-65
2022/04/06 14:11:16;;;;;;;4.88;0.80;;;;;;;;;;5084697;28;20044;-67
2022/04/06 14:14:02;;;;;;;1.48;1.00;;;;;;;;;;5084147;28;20059;-64
2022/04/06 14:16:47;;;;;;;1.38;0.90;;;;;;;;;;5076928;28;20154;-68
2022/04/06 14:19:32;;;;;;;1.50;0.88;;;;;;;;;;5085287;28;20047;-67
2022/04/06 14:22:18;;;;;;;2.75;1.00;;;;;;;;;;5082014;28;20017;-65
2022/04/06 14:25:15;;;;;;;1.05;0.88;;;;;;;;;;5059249;28;20032;-68
2022/04/06 14:28:01;;;;;;;2.05;0.70;;;;;;;;;;5084005;28;20491;-68
2022/04/06 14:30:49;;;;;;;1.92;0.70;;;;;;;;;;5073666;28;20098;-66
2022/04/06 14:33:35;;;;;;;1.30;0.80;;;;;;;;;;5079138;28;20036;-67
2022/04/06 14:36:21;;;;;;;2.90;0.85;;;;;;;;;;5061590;28;20051;-70
2022/04/06 14:39:07;;;;;;;0.93;0.70;;;;;;;;;;5082052;28;20115;-66
2022/04/06 14:41:52;;;;;;;1.10;1.00;;;;;;;;;;5078999;28;20471;-76
2022/04/06 14:44:38;;;;;;;0.85;0.80;;;;;;;;;;5080883;28;20023;-63
2022/04/06 14:47:25;;;;;;;1.30;0.82;;;;;;;;;;5078160;28;20415;-63
2022/04/06 14:50:10;;;;;;;1.25;1.05;;;;;;;;;;5078621;28;20100;-62
2022/04/06 14:52:55;;;;;;;1.38;0.88;;;;;;;;;;5066032;28;20038;-62
2022/04/06 14:55:41;;;;;;;1.48;0.95;;;;;;;;;;5082520;28;20020;-63
2022/04/06 14:58:26;;;;;;;1.13;0.90;;;;;;;;;;5062537;28;20485;-73
2022/04/06 15:01:11;;;;;;;1.17;1.00;;;;;;;;;;5077818;28;20119;-66
2022/04/06 15:03:56;;;;;;;1.92;0.98;;;;;;;;;;5087022;28;20400;-67
2022/04/06 15:06:42;;;;;;;2.42;0.95;;;;;;;;;;5076734;28;20008;-65
2022/04/06 15:09:28;;;;;;;0.85;0.85;;;;;;;;;;5079603;28;20111;-65
2022/04/06 15:12:13;;;;;;;1.35;0.80;;;;;;;;;;5078327;28;20648;-70
2022/04/06 15:14:59;;;;;;;1.23;1.00;;;;;;;;;;5077428;28;20040;-66
2022/04/06 15:17:44;;;;;;;1.15;0.90;;;;;;;;;;5063636;28;20024;-64
2022/04/06 15:20:30;;;;;;;0.70;0.70;;;;;;;;;;5085962;28;20028;-61
2022/04/06 15:23:15;;;;;;;1.60;0.90;;;;;;;;;;5086742;28;20020;-61
2022/04/06 15:26:00;;;;;;;1.40;0.95;;;;;;;;;;5086858;28;20024;-60
2022/04/06 15:28:46;;;;;;;2.15;1.00;;;;;;;;;;5069686;28;20023;-62
2022/04/06 15:31:32;;;;;;;1.80;1.00;;;;;;;;;;5086031;28;20036;-62
2022/04/06 15:37:24;;;;;;;1.95;1.00;;;;;;;;;;5080888;28;20028;-69
2022/04/06 15:40:09;;;;;;;0.82;0.82;;;;;;;;;;5078851;28;20176;-72
2022/04/06 15:42:55;;;;;;;2.08;1.20;;;;;;;;;;5089474;28;20065;-71
2022/04/06 15:45:40;;;;;;;1.67;1.00;;;;;;;;;;5077061;28;20036;-73
2022/04/06 15:48:25;;;;;;;1.30;0.90;;;;;;;;;;5075680;28;20024;-73
2022/04/06 15:51:10;;;;;;;1.33;1.10;;;;;;;;;;5077762;28;20032;-74
2022/04/06 15:53:56;;;;;;;1.00;0.95;;;;;;;;;;5085943;28;20035;-73
2022/04/06 15:56:41;;;;;;;2.25;1.08;;;;;;;;;;5081692;28;20027;-74
2022/04/06 15:59:26;;;;;;;0.82;0.82;;;;;;;;;;5081070;28;20193;-77
2022/04/06 16:02:12;;;;;;;0.95;0.88;;;;;;;;;;5072032;28;20027;-74
2022/04/06 16:04:57;;;;;;;0.95;0.80;;;;;;;;;;5068382;28;20028;-73
2022/04/06 16:07:42;;;;;;;2.45;0.90;;;;;;;;;;5073094;28;20028;-73
2022/04/06 16:10:28;;;;;;;1.33;1.00;;;;;;;;;;5085354;28;20031;-73
2022/04/06 16:13:13;;;;;;;0.80;0.80;;;;;;;;;;5062758;28;20055;-62
2022/04/06 16:15:59;;;;;;;1.38;1.10;;;;;;;;;;5077544;28;20220;-63
2022/04/06 16:18:45;;;;;;;1.17;0.93;;;;;;;;;;5064070;28;20217;-64
2022/04/06 16:21:30;;;;;;;1.33;0.90;;;;;;;;;;5082640;28;20027;-63
2022/04/06 16:24:16;;;;;;;1.33;1.20;;;;;;;;;;5074176;28;20490;-64
2022/04/06 16:27:01;;;;;;;2.00;1.30;;;;;;;;;;5080116;28;20032;-63
2022/04/06 16:29:46;;;;;;;2.60;1.30;;;;;;;;;;5078190;28;20496;-64
2022/04/06 16:32:32;;;;;;;2.33;0.98;;;;;;;;;;5064842;28;20230;-70
2022/04/06 16:35:17;;;;;;;3.08;1.27;;;;;;;;;;5037201;22;20476;-62
2022/04/06 16:38:03;;;;;;;1.02;0.85;;;;;;;;;;5003894;28;20049;-63
2022/04/06 16:40:48;;;;;;;1.75;1.00;;;;;;;;;;4989171;28;20033;-65
2022/04/06 16:43:34;;;;;;;1.23;0.93;;;;;;;;;;4985488;28;20452;-64
2022/04/06 16:46:19;;;;;;;1.25;1.00;;;;;;;;;;4983182;28;20045;-62
2022/04/06 16:49:06;;;;;;;1.77;1.08;;;;;;;;;;4976846;28;20583;-63
2022/04/06 16:54:55;;;;;;;1.98;1.20;;;;;;;;;;4982169;28;20084;-64
2022/04/06 16:57:41;;;;;;;2.30;1.30;;;;;;;;;;4987515;28;20030;-64